Terminal Aerodrome Forecast
Issued by NWS Grand Forks, ND

Home | Current Version | Previous Version | Text Only | Print | Product List | Glossary On
Versions: 1 2 3 4 5 6 7 8 9 10 11 12 13 14 15 16 17 18 19 20 21
843
FTUS43 KFGF 141123
TAFFAR
TAF
KFAR 141123Z 1412/1512 16015G25KT 2SM -SN OVC012
      TEMPO 1414/1416 P6SM NSW OVC025
     FM141600 16015KT P6SM OVC030
     FM141900 17013KT P6SM OVC015
     FM150400 19006KT P6SM BKN025=

USA.gov is the U.S. government's official web portal to all federal, state and local government web resources and services.